Time;durP1;ratioP1;P1;durP2;ratioP2;P2;SDS_P1;SDS_P2;PMS_P1;PMS_P2;Temp;Humidity;BMP_temperature;BMP_pressure;BME280_temperature;BME280_humidity;BME280_pressure;Samples;Min_cycle;Max_cycle;Signal;HPM_P1;HPM_P2
2022/07/18 00:00:08;;;;;;;11.38;5.65;;;15.90;99.90;;;;;;5065029;28;20044;-79
2022/07/18 00:02:34;;;;;;;7.05;5.43;;;15.90;99.90;;;;;;5047542;28;20510;-79
2022/07/18 00:05:00;;;;;;;7.40;5.50;;;15.90;99.90;;;;;;5044580;28;20041;-78
2022/07/18 00:07:26;;;;;;;9.45;6.05;;;15.90;99.90;;;;;;5062967;28;20040;-79
2022/07/18 00:09:51;;;;;;;9.00;5.68;;;15.80;99.90;;;;;;5012620;28;20048;-78
2022/07/18 00:12:17;;;;;;;7.32;5.20;;;15.80;99.90;;;;;;5064312;28;20068;-79
2022/07/18 00:14:43;;;;;;;8.43;6.00;;;15.80;99.90;;;;;;5047097;28;20082;-79
2022/07/18 00:17:09;;;;;;;7.90;5.60;;;15.80;99.90;;;;;;5050703;28;20747;-78
2022/07/18 00:19:36;;;;;;;8.27;5.93;;;15.80;99.90;;;;;;5053053;28;20132;-78
2022/07/18 00:22:02;;;;;;;8.88;5.85;;;15.70;99.90;;;;;;5035029;28;20521;-77
2022/07/18 00:24:28;;;;;;;7.72;5.90;;;15.70;99.90;;;;;;5047405;28;20112;-78
2022/07/18 00:26:54;;;;;;;9.68;6.50;;;15.70;99.90;;;;;;5049472;28;20067;-78
2022/07/18 00:29:20;;;;;;;6.97;5.80;;;15.70;99.90;;;;;;5050472;28;20052;-78
2022/07/18 00:31:46;;;;;;;7.15;5.68;;;15.70;99.90;;;;;;5055082;28;20082;-78
2022/07/18 00:34:11;;;;;;;6.78;5.35;;;15.70;99.90;;;;;;5063857;28;20399;-78
2022/07/18 00:36:37;;;;;;;9.02;6.00;;;15.70;99.90;;;;;;5028165;28;20424;-78
2022/07/18 00:39:04;;;;;;;6.75;5.22;;;15.70;99.90;;;;;;5066088;28;20052;-78
2022/07/18 00:41:29;;;;;;;7.70;5.25;;;15.70;99.90;;;;;;5069412;28;20063;-78
2022/07/18 00:43:57;;;;;;;6.13;5.22;;;15.60;99.90;;;;;;5044749;28;20052;-78
2022/07/18 00:46:26;;;;;;;7.32;4.80;;;15.50;99.90;;;;;;5070372;28;20109;-78
2022/07/18 00:48:53;;;;;;;7.57;5.82;;;15.50;99.90;;;;;;5064971;28;20131;-78
2022/07/18 00:51:20;;;;;;;8.07;6.35;;;15.50;99.90;;;;;;5054934;28;20075;-78
2022/07/18 00:53:47;;;;;;;7.25;5.80;;;15.50;99.90;;;;;;5068833;28;20048;-78
2022/07/18 00:56:17;;;;;;;8.40;5.80;;;15.50;99.90;;;;;;5058006;28;20052;-78
2022/07/18 00:58:43;;;;;;;7.65;5.85;;;15.50;99.90;;;;;;5064314;28;20083;-78
2022/07/18 01:03:54;;;;;;;9.13;6.40;;;15.40;99.90;;;;;;5056155;28;20049;-78
2022/07/18 01:06:20;;;;;;;8.10;6.60;;;15.40;99.90;;;;;;5046340;28;20049;-78
2022/07/18 01:08:46;;;;;;;7.72;6.93;;;15.40;99.90;;;;;;5029999;28;20045;-77
2022/07/18 01:11:13;;;;;;;8.15;6.38;;;15.40;99.90;;;;;;5048439;28;20041;-76
2022/07/18 01:13:40;;;;;;;8.25;6.18;;;15.30;99.90;;;;;;5062959;28;20029;-78
2022/07/18 01:16:06;;;;;;;9.75;7.20;;;15.40;99.90;;;;;;5063148;28;20097;-77
2022/07/18 01:18:32;;;;;;;8.98;7.40;;;15.40;99.90;;;;;;5065090;28;20495;-78
2022/07/18 01:20:58;;;;;;;8.38;7.03;;;15.30;99.90;;;;;;5071060;28;20075;-78
2022/07/18 01:23:24;;;;;;;9.10;7.60;;;15.40;99.90;;;;;;5050934;28;20098;-78
2022/07/18 01:25:50;;;;;;;9.63;7.78;;;15.40;99.90;;;;;;5062986;28;20088;-79
2022/07/18 01:28:16;;;;;;;10.25;7.63;;;15.40;99.90;;;;;;5048813;28;20056;-78
2022/07/18 01:30:42;;;;;;;9.15;6.85;;;15.40;99.90;;;;;;5031079;28;20149;-78
2022/07/18 01:33:07;;;;;;;8.00;6.68;;;15.40;99.90;;;;;;5045851;28;20103;-78
2022/07/18 01:35:33;;;;;;;8.52;7.10;;;15.30;99.90;;;;;;5055304;28;20048;-78
2022/07/18 01:38:01;;;;;;;9.98;7.65;;;15.30;99.90;;;;;;5059681;28;20041;-78
2022/07/18 01:40:27;;;;;;;9.63;7.85;;;15.30;99.90;;;;;;5051822;28;20052;-78
2022/07/18 01:42:53;;;;;;;9.52;8.00;;;15.30;99.90;;;;;;5057912;28;20048;-79
2022/07/18 01:45:20;;;;;;;9.20;7.25;;;15.20;99.90;;;;;;5062252;28;20045;-78
2022/07/18 01:47:46;;;;;;;9.68;7.40;;;15.20;99.90;;;;;;5048376;28;20391;-79
2022/07/18 01:50:14;;;;;;;8.35;7.05;;;15.20;99.90;;;;;;5065518;28;20036;-79
2022/07/18 01:52:40;;;;;;;8.45;6.90;;;15.20;99.90;;;;;;5070757;28;20165;-78
2022/07/18 01:55:08;;;;;;;10.20;7.32;;;15.20;99.90;;;;;;5054483;28;20036;-79
2022/07/18 01:57:34;;;;;;;10.02;7.47;;;15.30;99.90;;;;;;5044789;28;20076;-78
2022/07/18 02:00:00;;;;;;;10.35;7.53;;;15.30;99.90;;;;;;5069443;28;20538;-78
2022/07/18 02:02:26;;;;;;;8.88;7.28;;;15.30;99.90;;;;;;5060878;28;20243;-78
2022/07/18 02:05:01;;;;;;;9.93;8.13;;;15.30;99.90;;;;;;5040069;28;20288;-78
2022/07/18 02:07:31;;;;;;;11.18;8.00;;;15.30;99.90;;;;;;5049209;28;20067;-78
2022/07/18 02:09:58;;;;;;;10.88;7.32;;;15.20;99.90;;;;;;5045908;28;20066;-78
2022/07/18 02:12:24;;;;;;;11.98;8.30;;;15.10;99.90;;;;;;5061551;28;20531;-78
2022/07/18 02:14:50;;;;;;;8.32;7.28;;;15.10;99.90;;;;;;5054344;28;20044;-78
2022/07/18 02:17:16;;;;;;;8.73;7.13;;;15.10;99.90;;;;;;5060327;28;20090;-76
2022/07/18 02:19:42;;;;;;;9.85;7.72;;;15.20;99.90;;;;;;5021231;28;20033;-76
2022/07/18 02:22:08;;;;;;;9.80;7.70;;;15.20;99.90;;;;;;5062177;28;20344;-76
2022/07/18 02:24:34;;;;;;;9.48;7.80;;;15.20;99.90;;;;;;5061689;28;20140;-79
2022/07/18 02:27:00;;;;;;;10.77;7.95;;;15.20;99.90;;;;;;5051860;28;20135;-79
2022/07/18 02:29:26;;;;;;;9.18;7.55;;;15.30;99.90;;;;;;5038476;28;20052;-79
2022/07/18 02:31:52;;;;;;;10.55;7.30;;;15.10;99.90;;;;;;5045093;28;20041;-78
2022/07/18 02:34:17;;;;;;;9.35;7.18;;;15.10;99.90;;;;;;5046251;28;20052;-78
2022/07/18 02:36:47;;;;;;;9.43;7.57;;;15.00;99.90;;;;;;5060315;28;20067;-78
2022/07/18 02:39:14;;;;;;;9.23;7.97;;;15.00;99.90;;;;;;5045008;28;20146;-78
2022/07/18 02:41:39;;;;;;;9.63;8.10;;;14.90;99.90;;;;;;5044826;28;20472;-78
2022/07/18 02:44:05;;;;;;;9.57;8.20;;;14.90;99.90;;;;;;5044475;28;20135;-78
2022/07/18 02:46:31;;;;;;;11.18;9.65;;;14.90;99.90;;;;;;5027946;28;20630;-79
2022/07/18 02:48:57;;;;;;;13.82;10.65;;;14.80;99.90;;;;;;5049506;28;20067;-78
2022/07/18 02:51:26;;;;;;;11.43;10.20;;;14.80;99.90;;;;;;5046223;28;20036;-78
2022/07/18 02:53:53;;;;;;;10.60;9.05;;;14.80;99.90;;;;;;5070284;28;20702;-78
2022/07/18 02:56:18;;;;;;;13.27;9.20;;;14.90;99.90;;;;;;5058399;28;20127;-78
2022/07/18 02:58:44;;;;;;;11.50;10.07;;;14.90;99.90;;;;;;5030881;28;20617;-78
2022/07/18 03:01:10;;;;;;;11.20;9.85;;;14.90;99.90;;;;;;5048916;28;20039;-78
2022/07/18 03:03:36;;;;;;;10.93;9.73;;;14.90;99.90;;;;;;5066788;28;20040;-78
2022/07/18 03:06:01;;;;;;;10.48;8.90;;;14.90;99.90;;;;;;5066970;28;20490;-78
2022/07/18 03:08:27;;;;;;;12.30;9.63;;;14.90;99.90;;;;;;5064972;28;20075;-78
2022/07/18 03:10:53;;;;;;;13.40;9.95;;;14.90;99.90;;;;;;5043983;28;20094;-78
2022/07/18 03:13:19;;;;;;;13.63;9.60;;;14.90;99.90;;;;;;5049097;28;20647;-78
2022/07/18 03:15:45;;;;;;;12.00;10.25;;;14.90;99.90;;;;;;5052972;28;20522;-78
2022/07/18 03:18:10;;;;;;;10.93;9.77;;;14.90;99.90;;;;;;5061229;28;20518;-78
2022/07/18 03:20:36;;;;;;;11.77;9.10;;;14.90;99.90;;;;;;5052990;28;20075;-78
2022/07/18 03:23:07;;;;;;;12.05;9.45;;;14.90;99.90;;;;;;5049159;28;20066;-78
2022/07/18 03:25:33;;;;;;;13.60;9.63;;;14.90;99.90;;;;;;5060151;28;20032;-78
2022/07/18 03:27:58;;;;;;;10.18;9.07;;;14.90;99.90;;;;;;5063435;28;20050;-78
2022/07/18 03:30:27;;;;;;;12.13;9.48;;;14.90;99.90;;;;;;5063499;28;20053;-78
2022/07/18 03:32:56;;;;;;;11.32;9.50;;;14.90;99.90;;;;;;5044195;28;20099;-78
2022/07/18 03:35:22;;;;;;;10.73;9.20;;;15.00;99.90;;;;;;5043300;28;20045;-78
2022/07/18 03:37:48;;;;;;;11.18;10.07;;;14.90;99.90;;;;;;5031136;28;20044;-78
2022/07/18 03:40:14;;;;;;;13.13;9.57;;;14.90;99.90;;;;;;5044555;28;20561;-78
2022/07/18 03:42:40;;;;;;;10.98;9.70;;;14.90;99.90;;;;;;5067835;28;20135;-79
2022/07/18 03:45:07;;;;;;;11.13;9.85;;;14.90;99.90;;;;;;5049229;28;20044;-78
2022/07/18 03:47:35;;;;;;;14.13;10.32;;;14.90;99.90;;;;;;5050204;28;20033;-79
2022/07/18 03:50:01;;;;;;;11.52;9.65;;;14.90;99.90;;;;;;5061388;28;20146;-78
2022/07/18 03:52:27;;;;;;;10.20;9.18;;;14.90;99.90;;;;;;5061822;28;20500;-78
2022/07/18 03:55:01;;;;;;;13.23;9.57;;;14.90;99.90;;;;;;5068966;28;20055;-79
2022/07/18 03:57:27;;;;;;;12.50;10.00;;;14.90;99.90;;;;;;5069507;28;20397;-78
2022/07/18 03:59:53;;;;;;;11.18;9.45;;;14.90;99.90;;;;;;5062727;28;20904;-78
2022/07/18 04:02:19;;;;;;;14.75;10.60;;;14.90;99.90;;;;;;5023720;28;20051;-78
2022/07/18 04:04:45;;;;;;;15.25;10.00;;;14.90;99.90;;;;;;5047627;28;20032;-78
2022/07/18 04:07:10;;;;;;;10.98;9.48;;;14.90;99.90;;;;;;5027280;28;20395;-78
2022/07/18 04:09:36;;;;;;;13.30;10.23;;;14.90;99.90;;;;;;5033212;28;20044;-78
2022/07/18 04:12:02;;;;;;;11.35;10.23;;;14.90;99.90;;;;;;5076474;28;20126;-78
2022/07/18 04:14:28;;;;;;;12.90;10.23;;;14.90;99.90;;;;;;5046963;28;20036;-78
2022/07/18 04:16:54;;;;;;;12.93;10.20;;;14.90;99.90;;;;;;5031350;28;20037;-78
2022/07/18 04:19:21;;;;;;;11.52;10.32;;;14.90;99.90;;;;;;5037470;28;20148;-79
2022/07/18 04:21:47;;;;;;;12.30;10.52;;;14.90;99.90;;;;;;5040663;28;20048;-79
2022/07/18 04:24:13;;;;;;;13.45;10.25;;;14.90;99.90;;;;;;5046622;28;20101;-79
2022/07/18 04:26:39;;;;;;;12.93;10.20;;;14.90;99.90;;;;;;5057333;28;20674;-78
2022/07/18 04:29:04;;;;;;;13.23;10.55;;;14.90;99.90;;;;;;5059991;28;20063;-79
2022/07/18 04:31:30;;;;;;;11.82;9.80;;;15.00;99.90;;;;;;5045651;28;20114;-79
2022/07/18 04:33:56;;;;;;;13.13;9.73;;;15.00;99.90;;;;;;5027717;28;20048;-79
2022/07/18 04:36:25;;;;;;;11.43;9.68;;;15.00;99.90;;;;;;5015636;28;20602;-78
2022/07/18 04:38:51;;;;;;;11.52;10.05;;;15.00;99.90;;;;;;5060610;28;20040;-78
2022/07/18 04:41:19;;;;;;;12.40;10.45;;;15.00;99.90;;;;;;5072137;28;20094;-78
2022/07/18 04:43:45;;;;;;;11.95;9.82;;;15.00;99.90;;;;;;5041949;28;20075;-78
2022/07/18 04:46:11;;;;;;;13.07;11.27;;;15.00;99.90;;;;;;5059521;28;20052;-78
2022/07/18 04:48:38;;;;;;;13.48;9.98;;;15.10;99.90;;;;;;5022489;28;20060;-78
2022/07/18 04:51:04;;;;;;;12.88;9.55;;;15.10;99.90;;;;;;5030392;28;20055;-78
2022/07/18 04:53:30;;;;;;;13.43;10.02;;;15.10;99.90;;;;;;5056757;28;20036;-78
2022/07/18 04:55:56;;;;;;;12.77;9.90;;;15.20;99.90;;;;;;5064525;28;20048;-78
2022/07/18 04:58:21;;;;;;;13.38;9.85;;;15.20;99.90;;;;;;5049958;28;20153;-79
2022/07/18 05:00:47;;;;;;;13.32;10.02;;;15.30;99.90;;;;;;5061191;28;20028;-78
2022/07/18 05:03:14;;;;;;;11.32;9.43;;;15.30;99.90;;;;;;5053981;28;20583;-78
2022/07/18 05:05:39;;;;;;;12.15;9.07;;;15.40;99.90;;;;;;5071858;28;20036;-78
2022/07/18 05:08:06;;;;;;;10.95;9.02;;;15.40;99.90;;;;;;5067242;28;20058;-78
2022/07/18 05:10:32;;;;;;;11.18;9.20;;;15.40;99.90;;;;;;5058679;28;20044;-78
2022/07/18 05:12:58;;;;;;;11.70;9.23;;;15.50;99.90;;;;;;5065729;28;20040;-78
2022/07/18 05:15:25;;;;;;;10.15;8.50;;;15.50;99.90;;;;;;5048501;28;20040;-78
2022/07/18 05:17:55;;;;;;;14.18;8.30;;;15.60;99.90;;;;;;5046003;28;20036;-78
2022/07/18 05:20:23;;;;;;;12.60;8.38;;;15.60;99.90;;;;;;5050600;28;20052;-78
2022/07/18 05:22:51;;;;;;;12.65;8.52;;;15.70;99.90;;;;;;5047022;28;20056;-78
2022/07/18 05:25:24;;;;;;;10.63;7.93;;;15.70;99.90;;;;;;5063664;28;20448;-78
2022/07/18 05:27:51;;;;;;;11.70;9.32;;;15.70;99.90;;;;;;5026960;28;20531;-78
2022/07/18 05:30:17;;;;;;;10.15;7.68;;;15.70;99.90;;;;;;5060935;28;20110;-79
2022/07/18 05:32:44;;;;;;;12.10;7.93;;;15.70;99.90;;;;;;5071088;28;20048;-78
2022/07/18 05:35:12;;;;;;;11.05;8.10;;;15.70;99.90;;;;;;5067795;28;20704;-79
2022/07/18 05:37:39;;;;;;;12.40;8.45;;;15.80;99.90;;;;;;5070554;28;20557;-78
2022/07/18 05:40:10;;;;;;;9.77;8.13;;;15.80;99.90;;;;;;5064434;28;20119;-78
2022/07/18 05:42:37;;;;;;;12.05;8.18;;;15.90;99.90;;;;;;5047744;28;20052;-80
2022/07/18 05:45:03;;;;;;;9.10;7.63;;;15.90;99.90;;;;;;5026826;28;20045;-78
2022/07/18 05:47:30;;;;;;;12.63;7.70;;;16.00;99.90;;;;;;5061491;28;20768;-79
2022/07/18 05:49:55;;;;;;;10.85;7.25;;;16.10;99.90;;;;;;5034046;28;20044;-79
2022/07/18 05:52:21;;;;;;;9.27;7.22;;;16.20;99.90;;;;;;5063233;28;20047;-79
2022/07/18 05:54:50;;;;;;;8.13;6.70;;;16.30;99.90;;;;;;5030119;28;20032;-79
2022/07/18 05:57:15;;;;;;;11.50;7.13;;;16.40;99.90;;;;;;5061258;28;20044;-79
2022/07/18 05:59:41;;;;;;;12.35;7.03;;;16.50;99.90;;;;;;5032349;28;20032;-79
2022/07/18 06:02:07;;;;;;;10.60;7.93;;;16.60;99.90;;;;;;5066107;28;20044;-79
2022/07/18 06:04:33;;;;;;;9.18;6.70;;;16.60;99.90;;;;;;5065741;28;20135;-79
2022/07/18 06:06:59;;;;;;;9.25;6.55;;;16.70;99.90;;;;;;5060744;28;20523;-79
2022/07/18 06:09:25;;;;;;;9.00;5.68;;;16.80;99.90;;;;;;5046719;28;20032;-79
2022/07/18 06:11:52;;;;;;;10.40;6.32;;;16.90;99.90;;;;;;5064484;28;20045;-78
2022/07/18 06:14:20;;;;;;;11.88;5.88;;;16.90;99.90;;;;;;5045359;28;20070;-80
2022/07/18 06:16:46;;;;;;;8.52;5.63;;;17.00;99.90;;;;;;5051005;28;20041;-79
2022/07/18 06:19:12;;;;;;;8.75;5.32;;;17.10;99.90;;;;;;5049615;28;20080;-79
2022/07/18 06:21:37;;;;;;;9.85;5.78;;;17.20;99.90;;;;;;5028821;28;20067;-79
2022/07/18 06:24:04;;;;;;;7.28;4.97;;;17.30;99.90;;;;;;5044649;28;20047;-78
2022/07/18 06:26:29;;;;;;;8.38;5.30;;;17.40;99.90;;;;;;5024971;28;20045;-78
2022/07/18 06:28:55;;;;;;;9.88;5.40;;;17.50;99.90;;;;;;5044853;28;20072;-78
2022/07/18 06:31:21;;;;;;;8.10;5.30;;;17.60;99.90;;;;;;5049034;28;20053;-77
2022/07/18 06:33:47;;;;;;;7.32;4.70;;;17.60;99.90;;;;;;5065709;28;20051;-78
2022/07/18 06:36:13;;;;;;;7.97;5.13;;;17.80;99.90;;;;;;5046512;28;20345;-77
2022/07/18 06:38:40;;;;;;;7.90;5.35;;;17.90;99.90;;;;;;5061515;28;20036;-78
2022/07/18 06:41:06;;;;;;;7.53;5.68;;;17.90;99.90;;;;;;5055280;28;20036;-78
2022/07/18 06:43:32;;;;;;;7.10;4.80;;;18.00;99.90;;;;;;5043502;28;20249;-78
2022/07/18 06:45:57;;;;;;;10.52;5.50;;;18.10;99.90;;;;;;5037345;28;20052;-78
2022/07/18 06:48:23;;;;;;;7.40;5.07;;;18.10;99.90;;;;;;5040599;28;20059;-78
2022/07/18 06:50:49;;;;;;;8.13;5.72;;;18.30;99.90;;;;;;5056467;28;20044;-78
2022/07/18 06:53:15;;;;;;;9.07;5.25;;;18.30;99.90;;;;;;5039624;28;20048;-78
2022/07/18 06:55:41;;;;;;;11.25;5.57;;;18.40;99.90;;;;;;5060096;28;20044;-79
2022/07/18 06:58:07;;;;;;;9.05;5.25;;;18.50;99.90;;;;;;5061193;28;20048;-79
2022/07/18 07:00:33;;;;;;;7.55;4.53;;;18.70;99.90;;;;;;5061946;28;20147;-80
2022/07/18 07:02:58;;;;;;;9.82;5.18;;;18.80;99.90;;;;;;5038625;28;20423;-80
2022/07/18 07:05:24;;;;;;;9.38;4.63;;;18.90;99.90;;;;;;5047601;28;20040;-80
2022/07/18 07:07:50;;;;;;;6.97;4.20;;;19.00;99.90;;;;;;5062861;28;20036;-79
2022/07/18 07:10:19;;;;;;;8.00;4.20;;;19.20;99.90;;;;;;5022795;28;20044;-80
2022/07/18 07:12:48;;;;;;;7.22;4.30;;;19.30;99.90;;;;;;5039861;28;20037;-88
2022/07/18 07:15:17;;;;;;;8.35;4.15;;;19.40;99.90;;;;;;5042573;28;20056;-82
2022/07/18 07:17:43;;;;;;;8.43;3.63;;;19.50;99.90;;;;;;5045445;28;20052;-80
2022/07/18 07:20:10;;;;;;;6.13;3.63;;;19.70;99.90;;;;;;5043816;28;20133;-80
2022/07/18 07:22:43;;;;;;;7.78;3.80;;;19.80;99.90;;;;;;5029723;28;20063;-80
2022/07/18 07:25:09;;;;;;;8.30;3.97;;;20.00;99.90;;;;;;5058246;28;20552;-80
2022/07/18 07:27:35;;;;;;;5.97;3.50;;;20.10;99.90;;;;;;5025812;28;20422;-80
2022/07/18 07:30:00;;;;;;;6.35;3.83;;;20.20;99.90;;;;;;5025040;28;20098;-80
2022/07/18 07:32:26;;;;;;;5.90;3.40;;;20.30;99.90;;;;;;5013612;28;20212;-79
2022/07/18 07:34:55;;;;;;;8.38;3.63;;;20.50;99.90;;;;;;5028066;28;20159;-80
2022/07/18 07:37:20;;;;;;;7.97;3.75;;;20.60;99.90;;;;;;5042993;28;20588;-81
2022/07/18 07:39:47;;;;;;;10.30;4.50;;;20.80;99.90;;;;;;5045425;28;20044;-80
2022/07/18 07:42:13;;;;;;;8.13;3.58;;;21.00;99.90;;;;;;5028479;28;20041;-81
2022/07/18 07:44:38;;;;;;;6.50;3.35;;;21.10;99.90;;;;;;5029472;28;20086;-81
2022/07/18 07:47:05;;;;;;;6.85;3.45;;;21.30;99.90;;;;;;5046593;28;20056;-80
2022/07/18 07:49:36;;;;;;;8.23;3.70;;;21.50;99.90;;;;;;5011915;28;20054;-80
2022/07/18 07:52:02;;;;;;;9.43;3.60;;;21.60;99.90;;;;;;5042016;28;20532;-80
2022/07/18 07:54:28;;;;;;;6.30;3.40;;;21.80;99.90;;;;;;5026380;28;20123;-80
2022/07/18 07:56:54;;;;;;;8.32;3.50;;;21.90;99.90;;;;;;5061087;28;20048;-81
2022/07/18 07:59:20;;;;;;;6.35;3.45;;;22.10;99.90;;;;;;5031466;28;20052;-81
2022/07/18 08:01:46;;;;;;;8.52;3.05;;;22.30;99.00;;;;;;5027759;28;20048;-80
2022/07/18 08:04:12;;;;;;;5.88;2.85;;;22.30;97.20;;;;;;5022917;28;20052;-80
2022/07/18 08:06:37;;;;;;;7.40;2.95;;;22.50;96.40;;;;;;5024555;28;20560;-81
2022/07/18 08:09:03;;;;;;;7.03;3.15;;;22.50;95.60;;;;;;5058006;28;20264;-81
2022/07/18 08:11:29;;;;;;;4.68;2.30;;;22.60;95.00;;;;;;5026132;28;20380;-80
2022/07/18 08:13:55;;;;;;;6.72;2.75;;;22.70;95.30;;;;;;5028233;28;20395;-80
2022/07/18 08:16:21;;;;;;;5.95;2.67;;;22.80;95.20;;;;;;5027028;28;20435;-81
2022/07/18 08:18:50;;;;;;;8.30;3.05;;;23.10;96.10;;;;;;5022735;28;20459;-80
2022/07/18 08:21:16;;;;;;;8.00;2.80;;;23.30;94.40;;;;;;5045226;28;20048;-80
2022/07/18 08:23:43;;;;;;;5.05;2.58;;;23.40;92.30;;;;;;5063741;28;20406;-81
2022/07/18 08:26:08;;;;;;;7.80;2.50;;;23.50;91.00;;;;;;5040688;28;20056;-80
2022/07/18 08:28:34;;;;;;;6.05;2.78;;;23.50;92.40;;;;;;5022496;28;20144;-80
2022/07/18 08:31:00;;;;;;;9.52;2.80;;;23.60;91.60;;;;;;5055021;28;20434;-80
2022/07/18 08:33:26;;;;;;;6.97;2.17;;;23.60;91.10;;;;;;5040733;28;20049;-80
2022/07/18 08:35:55;;;;;;;8.93;2.47;;;23.60;91.80;;;;;;5043350;28;20047;-79
2022/07/18 08:38:21;;;;;;;7.70;1.93;;;23.60;90.70;;;;;;5037964;28;20056;-81
2022/07/18 08:40:56;;;;;;;8.90;2.40;;;23.70;87.90;;;;;;5027311;28;20036;-80
2022/07/18 08:43:25;;;;;;;8.60;1.98;;;23.90;85.70;;;;;;5045480;28;20507;-80
2022/07/18 08:45:56;;;;;;;3.95;1.83;;;24.10;86.50;;;;;;5056596;28;20041;-80
2022/07/18 08:48:25;;;;;;;4.78;1.80;;;24.20;85.50;;;;;;5045409;28;20123;-80
2022/07/18 08:57:18;;;;;;;6.53;1.60;;;24.80;81.80;;;;;;5064101;28;21134;-80
2022/07/18 08:59:44;;;;;;;4.60;1.60;;;25.00;80.00;;;;;;5046871;28;20491;-79
2022/07/18 09:02:53;;;;;;;5.43;1.85;;;25.20;79.10;;;;;;5027771;28;20086;-81
2022/07/18 09:05:20;;;;;;;5.07;1.80;;;25.50;76.30;;;;;;5042567;28;20098;-80
2022/07/18 09:07:55;;;;;;;3.05;1.38;;;25.70;76.20;;;;;;5061707;28;20040;-80
2022/07/18 09:10:53;;;;;;;;;;;25.70;72.70;;;;;;5031218;28;20152;-81
2022/07/18 09:13:23;;;;;;;4.53;1.70;;;25.70;70.50;;;;;;5044645;28;20394;-80
2022/07/18 09:16:12;;;;;;;4.80;1.35;;;25.70;69.00;;;;;;5046591;28;20066;-80
2022/07/18 09:18:46;;;;;;;4.30;1.92;;;25.70;67.00;;;;;;5034895;28;20049;-81
2022/07/18 09:21:13;;;;;;;4.50;1.58;;;25.70;65.20;;;;;;5055616;28;20044;-80
2022/07/18 09:23:41;;;;;;;4.13;1.48;;;25.80;65.70;;;;;;5042820;28;20044;-81
2022/07/18 09:26:09;;;;;;;6.45;1.90;;;25.90;64.10;;;;;;5063090;28;20044;-81
2022/07/18 09:28:49;;;;;;;5.70;1.80;;;26.00;64.00;;;;;;5044510;28;20060;-77
2022/07/18 09:31:21;;;;;;;5.90;1.63;;;26.20;65.30;;;;;;5042295;28;20083;-80
2022/07/18 09:34:04;;;;;;;5.35;1.75;;;26.30;63.00;;;;;;5028649;28;20403;-77
2022/07/18 09:36:36;;;;;;;4.18;1.50;;;26.30;63.80;;;;;;5041953;28;20060;-79
2022/07/18 09:39:19;;;;;;;6.63;1.65;;;26.30;63.60;;;;;;5060756;28;20100;-77
2022/07/18 09:41:45;;;;;;;6.40;1.98;;;26.40;61.50;;;;;;5045906;28;20562;-79
2022/07/18 09:44:15;;;;;;;8.73;2.28;;;26.50;61.30;;;;;;5038772;28;20037;-79
2022/07/18 09:47:04;;;;;;;4.93;1.73;;;26.60;59.50;;;;;;5039229;28;20041;-80
2022/07/18 09:49:40;;;;;;;4.87;1.70;;;26.70;59.80;;;;;;5064648;28;20053;-80
2022/07/18 09:52:10;;;;;;;7.97;2.00;;;26.80;59.80;;;;;;5063547;28;20041;-84
2022/07/18 09:54:41;;;;;;;4.68;1.38;;;27.00;61.80;;;;;;5046242;28;20037;-79
2022/07/18 09:57:07;;;;;;;4.50;1.77;;;27.10;59.10;;;;;;5034628;28;20051;-79
2022/07/18 09:59:35;;;;;;;6.25;1.70;;;27.10;60.80;;;;;;5040270;28;20049;-80
2022/07/18 10:02:02;;;;;;;3.78;1.50;;;27.20;60.50;;;;;;5059379;28;20131;-80
2022/07/18 10:04:28;;;;;;;2.97;1.70;;;27.30;58.90;;;;;;5025746;28;20048;-80
2022/07/18 10:06:54;;;;;;;5.20;2.08;;;27.30;56.60;;;;;;5023064;28;20360;-81
2022/07/18 10:09:21;;;;;;;5.88;2.08;;;27.30;55.70;;;;;;5042155;28;20055;-80
2022/07/18 10:11:48;;;;;;;6.00;2.33;;;27.30;56.90;;;;;;5040624;28;20040;-80
2022/07/18 10:14:14;;;;;;;7.50;2.38;;;27.40;57.30;;;;;;5043089;28;20049;-79
2022/07/18 10:16:41;;;;;;;5.28;1.77;;;27.50;56.90;;;;;;5042977;28;20042;-80
2022/07/18 10:19:07;;;;;;;5.43;2.00;;;27.60;57.70;;;;;;5059905;28;20072;-80
2022/07/18 10:21:33;;;;;;;4.63;2.00;;;27.60;56.20;;;;;;5027569;28;20091;-79
2022/07/18 10:24:01;;;;;;;6.93;2.13;;;27.60;55.90;;;;;;5045199;28;20052;-80
2022/07/18 10:26:31;;;;;;;6.60;2.15;;;27.60;55.10;;;;;;5039767;28;20039;-80
2022/07/18 10:28:59;;;;;;;4.70;1.92;;;27.60;55.70;;;;;;5044512;28;20056;-81
2022/07/18 10:31:37;;;;;;;3.92;1.88;;;27.70;55.00;;;;;;5054232;28;20473;-80
2022/07/18 10:34:06;;;;;;;5.55;2.00;;;27.80;57.80;;;;;;5054726;28;20138;-79
2022/07/18 10:36:41;;;;;;;6.57;2.00;;;27.90;55.80;;;;;;5050120;28;20047;-79
2022/07/18 10:39:24;;;;;;;4.70;1.88;;;28.00;53.90;;;;;;5042645;28;20306;-79
2022/07/18 10:42:01;;;;;;;5.68;2.08;;;28.00;53.00;;;;;;5056799;28;20068;-80
2022/07/18 10:44:29;;;;;;;6.63;2.70;;;28.20;53.60;;;;;;5041171;28;20064;-78
2022/07/18 10:47:05;;;;;;;6.13;2.00;;;28.30;52.70;;;;;;5057838;28;20041;-79
2022/07/18 10:49:49;;;;;;;8.30;2.25;;;28.40;51.80;;;;;;5059190;28;20044;-79
2022/07/18 10:52:29;;;;;;;4.68;2.30;;;28.50;52.30;;;;;;5063862;28;20075;-79
2022/07/18 10:55:02;;;;;;;4.78;2.50;;;28.60;51.90;;;;;;5056765;28;20041;-80
2022/07/18 10:57:32;;;;;;;6.30;2.58;;;28.70;53.00;;;;;;5065256;28;20044;-80
2022/07/18 11:00:09;;;;;;;12.23;3.60;;;28.80;51.80;;;;;;5041266;28;20548;-79
2022/07/18 11:02:38;;;;;;;6.05;2.67;;;28.90;52.20;;;;;;5043143;28;20041;-80
2022/07/18 11:05:24;;;;;;;7.20;2.60;;;29.00;50.40;;;;;;5047360;28;20051;-79
2022/07/18 11:08:02;;;;;;;6.15;2.70;;;28.90;49.60;;;;;;5042752;28;20052;-79
2022/07/18 11:13:24;;;;;;;7.30;2.08;;;28.70;49.70;;;;;;5063187;28;20142;-80
2022/07/18 11:16:09;;;;;;;5.10;2.53;;;28.70;51.60;;;;;;5045652;28;20035;-79
2022/07/18 11:18:49;;;;;;;6.43;2.53;;;28.60;51.60;;;;;;5067030;28;20112;-79
2022/07/18 11:21:34;;;;;;;7.35;2.45;;;28.70;51.90;;;;;;5063013;28;20045;-78
2022/07/18 11:24:06;;;;;;;4.97;2.47;;;28.70;52.90;;;;;;5063093;28;20687;-80
2022/07/18 11:26:33;;;;;;;5.93;2.65;;;28.80;50.60;;;;;;5042995;28;20186;-80
2022/07/18 11:29:07;;;;;;;5.78;2.60;;;28.80;49.80;;;;;;5041573;28;20550;-79
2022/07/18 11:31:57;;;;;;;5.38;2.97;;;28.90;49.10;;;;;;5041304;28;20145;-79
2022/07/18 11:34:26;;;;;;;;;;;29.00;51.20;;;;;;5039332;28;20664;-78
2022/07/18 11:36:52;;;;;;;4.30;2.55;;;29.10;51.80;;;;;;5032098;28;20872;-78
2022/07/18 11:39:32;;;;;;;4.82;2.67;;;29.20;50.40;;;;;;5017092;28;20070;-79
2022/07/18 11:41:58;;;;;;;5.95;2.58;;;29.20;46.90;;;;;;5048585;28;20131;-78
2022/07/18 11:44:27;;;;;;;4.88;2.30;;;29.10;48.80;;;;;;5065138;28;20094;-80
2022/07/18 11:47:08;;;;;;;5.72;3.00;;;29.20;49.70;;;;;;5044763;28;20044;-79
2022/07/18 11:49:35;;;;;;;4.28;2.72;;;29.10;46.30;;;;;;5063350;28;20419;-79
2022/07/18 11:52:01;;;;;;;5.65;2.80;;;28.90;48.40;;;;;;5027331;28;20098;-79
2022/07/18 11:54:33;;;;;;;5.80;2.80;;;28.90;48.10;;;;;;5046348;28;20041;-80
2022/07/18 11:57:00;;;;;;;5.35;2.65;;;28.80;47.10;;;;;;5062140;28;20053;-80
2022/07/18 11:59:37;;;;;;;5.97;2.70;;;28.70;47.90;;;;;;5031010;28;20036;-79
2022/07/18 12:02:03;;;;;;;5.80;2.30;;;28.60;49.80;;;;;;5062088;28;20098;-79
2022/07/18 12:04:29;;;;;;;5.55;2.40;;;28.60;49.80;;;;;;5048529;28;20381;-79
2022/07/18 12:07:17;;;;;;;5.18;2.40;;;28.50;49.50;;;;;;5046241;28;20115;-79
2022/07/18 12:09:43;;;;;;;6.75;2.78;;;28.50;50.60;;;;;;5030572;28;20320;-83
2022/07/18 12:12:10;;;;;;;6.30;2.63;;;28.40;50.10;;;;;;5062553;28;20036;-83
2022/07/18 12:14:39;;;;;;;5.55;2.60;;;28.40;50.90;;;;;;5050560;28;20376;-83
2022/07/18 12:17:06;;;;;;;5.00;2.63;;;28.60;50.30;;;;;;5065091;28;20138;-83
2022/07/18 12:19:39;;;;;;;4.72;2.58;;;28.70;49.30;;;;;;5064129;28;20088;-83
2022/07/18 12:22:08;;;;;;;4.45;2.38;;;28.90;48.20;;;;;;5044797;28;20054;-83
2022/07/18 12:24:38;;;;;;;5.50;3.00;;;29.00;50.20;;;;;;5068822;28;20105;-83
2022/07/18 12:27:16;;;;;;;6.15;2.60;;;29.00;49.60;;;;;;5050622;28;20282;-83
2022/07/18 12:29:59;;;;;;;6.63;2.67;;;29.00;48.70;;;;;;5066916;28;20052;-84
2022/07/18 12:32:26;;;;;;;4.40;2.65;;;28.90;48.80;;;;;;5063763;28;20072;-83
2022/07/18 12:35:14;;;;;;;5.57;2.75;;;28.90;50.60;;;;;;5064900;28;20097;-83
2022/07/18 12:37:40;;;;;;;4.68;2.80;;;28.80;53.90;;;;;;5048814;28;20083;-83
2022/07/18 12:40:09;;;;;;;3.65;2.30;;;28.90;52.10;;;;;;5063033;28;21420;-83
2022/07/18 12:42:38;;;;;;;6.15;2.95;;;29.00;50.10;;;;;;5066773;28;20045;-83
2022/07/18 12:45:05;;;;;;;4.95;3.40;;;29.10;49.20;;;;;;5041323;28;20091;-81
2022/07/18 12:47:31;;;;;;;6.32;3.50;;;29.30;47.20;;;;;;5043272;28;20123;-81
2022/07/18 12:49:57;;;;;;;5.10;2.58;;;29.50;48.80;;;;;;5069203;28;20109;-82
2022/07/18 12:52:23;;;;;;;5.05;3.13;;;29.70;50.40;;;;;;5027782;28;20298;-81
2022/07/18 12:54:50;;;;;;;4.57;2.97;;;29.80;48.40;;;;;;5044642;28;20033;-81
2022/07/18 12:57:17;;;;;;;5.45;3.20;;;30.00;46.10;;;;;;5044455;28;20056;-82
2022/07/18 12:59:43;;;;;;;4.63;2.72;;;29.90;45.90;;;;;;5049133;28;20046;-82